sensor_id;sensor_type;location;lat;lon;timestamp;P1;durP1;ratioP1;P2;durP2;ratioP2
48897;SDS011;34713;50.038;20.000;2024-02-15T00:00:54;35.00;;;19.40;;
48897;SDS011;34713;50.038;20.000;2024-02-15T00:03:37;34.20;;;19.50;;
48897;SDS011;34713;50.038;20.000;2024-02-15T00:06:13;38.00;;;19.30;;
48897;SDS011;34713;50.038;20.000;2024-02-15T00:08:40;32.90;;;19.30;;
48897;SDS011;34713;50.038;20.000;2024-02-15T00:11:06;39.10;;;19.40;;
48897;SDS011;34713;50.038;20.000;2024-02-15T00:13:35;36.60;;;19.80;;
48897;SDS011;34713;50.038;20.000;2024-02-15T00:16:02;36.70;;;19.70;;
48897;SDS011;34713;50.038;20.000;2024-02-15T00:18:31;38.30;;;20.40;;
48897;SDS011;34713;50.038;20.000;2024-02-15T00:20:58;32.20;;;18.50;;
48897;SDS011;34713;50.038;20.000;2024-02-15T00:23:26;32.30;;;20.10;;
48897;SDS011;34713;50.038;20.000;2024-02-15T00:25:53;34.20;;;21.10;;
48897;SDS011;34713;50.038;20.000;2024-02-15T00:28:19;34.30;;;20.90;;
48897;SDS011;34713;50.038;20.000;2024-02-15T00:30:47;34.40;;;20.30;;
48897;SDS011;34713;50.038;20.000;2024-02-15T00:33:14;42.30;;;20.40;;
48897;SDS011;34713;50.038;20.000;2024-02-15T00:35:40;33.10;;;19.40;;
48897;SDS011;34713;50.038;20.000;2024-02-15T00:38:07;40.60;;;21.10;;
48897;SDS011;34713;50.038;20.000;2024-02-15T00:40:34;36.80;;;19.30;;
48897;SDS011;34713;50.038;20.000;2024-02-15T00:43:00;39.20;;;21.80;;
48897;SDS011;34713;50.038;20.000;2024-02-15T00:45:27;38.20;;;20.70;;
48897;SDS011;34713;50.038;20.000;2024-02-15T00:47:54;33.40;;;19.30;;
48897;SDS011;34713;50.038;20.000;2024-02-15T00:50:22;32.30;;;18.90;;
48897;SDS011;34713;50.038;20.000;2024-02-15T00:52:49;33.30;;;19.00;;
48897;SDS011;34713;50.038;20.000;2024-02-15T00:55:15;34.70;;;19.30;;
48897;SDS011;34713;50.038;20.000;2024-02-15T00:57:42;32.10;;;19.10;;
48897;SDS011;34713;50.038;20.000;2024-02-15T01:00:09;34.40;;;20.10;;
48897;SDS011;34713;50.038;20.000;2024-02-15T01:02:36;35.20;;;19.60;;
48897;SDS011;34713;50.038;20.000;2024-02-15T01:05:03;29.90;;;18.50;;
48897;SDS011;34713;50.038;20.000;2024-02-15T01:07:30;29.30;;;18.60;;
48897;SDS011;34713;50.038;20.000;2024-02-15T01:09:57;36.30;;;19.00;;
48897;SDS011;34713;50.038;20.000;2024-02-15T01:12:24;34.60;;;18.70;;
48897;SDS011;34713;50.038;20.000;2024-02-15T01:14:50;32.00;;;18.80;;
48897;SDS011;34713;50.038;20.000;2024-02-15T01:17:17;34.70;;;18.70;;
48897;SDS011;34713;50.038;20.000;2024-02-15T01:19:44;35.90;;;19.30;;
48897;SDS011;34713;50.038;20.000;2024-02-15T01:22:11;32.30;;;18.50;;
48897;SDS011;34713;50.038;20.000;2024-02-15T01:24:39;33.80;;;19.10;;
48897;SDS011;34713;50.038;20.000;2024-02-15T01:27:08;33.20;;;19.10;;
48897;SDS011;34713;50.038;20.000;2024-02-15T01:29:35;37.10;;;19.70;;
48897;SDS011;34713;50.038;20.000;2024-02-15T01:32:02;35.40;;;20.40;;
48897;SDS011;34713;50.038;20.000;2024-02-15T01:34:29;36.50;;;19.70;;
48897;SDS011;34713;50.038;20.000;2024-02-15T01:36:56;34.10;;;20.70;;
48897;SDS011;34713;50.038;20.000;2024-02-15T01:39:22;39.00;;;21.10;;
48897;SDS011;34713;50.038;20.000;2024-02-15T01:41:49;35.00;;;20.90;;
48897;SDS011;34713;50.038;20.000;2024-02-15T01:44:22;36.10;;;20.90;;
48897;SDS011;34713;50.038;20.000;2024-02-15T01:46:50;41.50;;;21.00;;
48897;SDS011;34713;50.038;20.000;2024-02-15T01:49:24;33.10;;;20.20;;
48897;SDS011;34713;50.038;20.000;2024-02-15T01:51:51;37.00;;;21.30;;
48897;SDS011;34713;50.038;20.000;2024-02-15T01:54:18;34.40;;;19.50;;
48897;SDS011;34713;50.038;20.000;2024-02-15T01:56:46;36.90;;;22.70;;
48897;SDS011;34713;50.038;20.000;2024-02-15T01:59:14;35.50;;;20.10;;
48897;SDS011;34713;50.038;20.000;2024-02-15T02:01:44;36.80;;;21.30;;
48897;SDS011;34713;50.038;20.000;2024-02-15T02:04:11;35.00;;;21.10;;
48897;SDS011;34713;50.038;20.000;2024-02-15T02:06:38;38.70;;;20.80;;
48897;SDS011;34713;50.038;20.000;2024-02-15T02:09:05;36.50;;;20.70;;
48897;SDS011;34713;50.038;20.000;2024-02-15T02:11:32;36.10;;;21.00;;
48897;SDS011;34713;50.038;20.000;2024-02-15T02:14:02;36.30;;;21.00;;
48897;SDS011;34713;50.038;20.000;2024-02-15T02:16:30;37.60;;;20.00;;
48897;SDS011;34713;50.038;20.000;2024-02-15T02:19:05;36.40;;;20.20;;
48897;SDS011;34713;50.038;20.000;2024-02-15T02:21:35;38.70;;;20.10;;
48897;SDS011;34713;50.038;20.000;2024-02-15T02:24:03;30.80;;;19.00;;
48897;SDS011;34713;50.038;20.000;2024-02-15T02:26:34;33.90;;;19.60;;
48897;SDS011;34713;50.038;20.000;2024-02-15T02:29:00;34.90;;;19.60;;
48897;SDS011;34713;50.038;20.000;2024-02-15T02:31:34;31.90;;;19.90;;
48897;SDS011;34713;50.038;20.000;2024-02-15T02:34:01;30.50;;;19.30;;
48897;SDS011;34713;50.038;20.000;2024-02-15T02:36:27;35.70;;;19.70;;
48897;SDS011;34713;50.038;20.000;2024-02-15T02:38:55;30.10;;;18.40;;
48897;SDS011;34713;50.038;20.000;2024-02-15T02:41:27;33.80;;;18.20;;
48897;SDS011;34713;50.038;20.000;2024-02-15T02:43:57;34.30;;;19.30;;
48897;SDS011;34713;50.038;20.000;2024-02-15T02:46:24;32.60;;;19.00;;
48897;SDS011;34713;50.038;20.000;2024-02-15T02:48:52;34.50;;;19.00;;
48897;SDS011;34713;50.038;20.000;2024-02-15T02:51:18;29.50;;;17.70;;
48897;SDS011;34713;50.038;20.000;2024-02-15T02:53:45;40.10;;;19.60;;
48897;SDS011;34713;50.038;20.000;2024-02-15T02:56:12;32.90;;;19.10;;
48897;SDS011;34713;50.038;20.000;2024-02-15T02:58:39;33.70;;;20.10;;
48897;SDS011;34713;50.038;20.000;2024-02-15T03:01:09;30.20;;;17.50;;
48897;SDS011;34713;50.038;20.000;2024-02-15T03:03:36;32.60;;;20.30;;
48897;SDS011;34713;50.038;20.000;2024-02-15T03:06:02;33.00;;;19.10;;
48897;SDS011;34713;50.038;20.000;2024-02-15T03:08:29;34.10;;;17.90;;
48897;SDS011;34713;50.038;20.000;2024-02-15T03:10:56;32.20;;;19.10;;
48897;SDS011;34713;50.038;20.000;2024-02-15T03:13:23;34.30;;;18.20;;
48897;SDS011;34713;50.038;20.000;2024-02-15T03:15:50;32.80;;;19.10;;
48897;SDS011;34713;50.038;20.000;2024-02-15T03:18:17;35.20;;;18.80;;
48897;SDS011;34713;50.038;20.000;2024-02-15T03:20:44;36.80;;;19.00;;
48897;SDS011;34713;50.038;20.000;2024-02-15T03:23:10;36.10;;;17.60;;
48897;SDS011;34713;50.038;20.000;2024-02-15T03:25:37;40.80;;;19.90;;
48897;SDS011;34713;50.038;20.000;2024-02-15T03:28:04;35.30;;;18.90;;
48897;SDS011;34713;50.038;20.000;2024-02-15T03:30:31;38.60;;;18.80;;
48897;SDS011;34713;50.038;20.000;2024-02-15T03:33:00;33.80;;;18.10;;
48897;SDS011;34713;50.038;20.000;2024-02-15T03:35:27;34.50;;;19.10;;
48897;SDS011;34713;50.038;20.000;2024-02-15T03:37:57;42.40;;;19.30;;
48897;SDS011;34713;50.038;20.000;2024-02-15T03:40:25;33.50;;;18.60;;
48897;SDS011;34713;50.038;20.000;2024-02-15T03:42:55;42.60;;;19.00;;
48897;SDS011;34713;50.038;20.000;2024-02-15T03:45:22;35.50;;;18.90;;
48897;SDS011;34713;50.038;20.000;2024-02-15T03:47:54;39.30;;;20.60;;
48897;SDS011;34713;50.038;20.000;2024-02-15T03:50:24;34.90;;;18.90;;
48897;SDS011;34713;50.038;20.000;2024-02-15T03:52:51;31.60;;;17.90;;
48897;SDS011;34713;50.038;20.000;2024-02-15T03:55:18;44.30;;;20.00;;
48897;SDS011;34713;50.038;20.000;2024-02-15T03:57:45;40.80;;;19.80;;
48897;SDS011;34713;50.038;20.000;2024-02-15T04:00:12;38.70;;;19.50;;
48897;SDS011;34713;50.038;20.000;2024-02-15T04:02:47;34.70;;;20.00;;
48897;SDS011;34713;50.038;20.000;2024-02-15T04:05:17;39.10;;;20.40;;
48897;SDS011;34713;50.038;20.000;2024-02-15T04:07:44;40.40;;;21.10;;
48897;SDS011;34713;50.038;20.000;2024-02-15T04:10:11;42.60;;;19.80;;
48897;SDS011;34713;50.038;20.000;2024-02-15T04:12:38;40.30;;;20.40;;
48897;SDS011;34713;50.038;20.000;2024-02-15T04:15:08;49.30;;;18.70;;
48897;SDS011;34713;50.038;20.000;2024-02-15T04:17:38;35.80;;;20.20;;
48897;SDS011;34713;50.038;20.000;2024-02-15T04:20:05;33.90;;;19.80;;
48897;SDS011;34713;50.038;20.000;2024-02-15T04:22:32;38.70;;;20.40;;
48897;SDS011;34713;50.038;20.000;2024-02-15T04:25:05;40.20;;;20.10;;
48897;SDS011;34713;50.038;20.000;2024-02-15T04:27:33;36.60;;;18.80;;
48897;SDS011;34713;50.038;20.000;2024-02-15T04:30:00;43.70;;;21.10;;
48897;SDS011;34713;50.038;20.000;2024-02-15T04:32:28;42.20;;;19.60;;
48897;SDS011;34713;50.038;20.000;2024-02-15T04:35:00;47.30;;;20.10;;
48897;SDS011;34713;50.038;20.000;2024-02-15T04:37:27;34.10;;;19.00;;
48897;SDS011;34713;50.038;20.000;2024-02-15T04:39:58;38.40;;;19.60;;
48897;SDS011;34713;50.038;20.000;2024-02-15T04:42:32;37.30;;;19.10;;
48897;SDS011;34713;50.038;20.000;2024-02-15T04:45:00;41.00;;;19.90;;
48897;SDS011;34713;50.038;20.000;2024-02-15T04:47:27;35.90;;;19.60;;
48897;SDS011;34713;50.038;20.000;2024-02-15T04:49:56;35.70;;;18.90;;
48897;SDS011;34713;50.038;20.000;2024-02-15T04:52:22;35.70;;;20.00;;
48897;SDS011;34713;50.038;20.000;2024-02-15T04:54:50;39.70;;;19.70;;
48897;SDS011;34713;50.038;20.000;2024-02-15T04:57:16;34.40;;;19.80;;
48897;SDS011;34713;50.038;20.000;2024-02-15T04:59:43;37.40;;;20.00;;
48897;SDS011;34713;50.038;20.000;2024-02-15T05:02:13;34.50;;;20.30;;
48897;SDS011;34713;50.038;20.000;2024-02-15T05:15:25;46.80;;;24.40;;
48897;SDS011;34713;50.038;20.000;2024-02-15T05:17:52;40.10;;;22.60;;
48897;SDS011;34713;50.038;20.000;2024-02-15T05:20:20;43.80;;;22.30;;
48897;SDS011;34713;50.038;20.000;2024-02-15T05:22:47;45.30;;;22.80;;
48897;SDS011;34713;50.038;20.000;2024-02-15T05:25:14;38.20;;;20.60;;
48897;SDS011;34713;50.038;20.000;2024-02-15T05:27:42;43.70;;;21.30;;
48897;SDS011;34713;50.038;20.000;2024-02-15T05:30:10;43.50;;;20.90;;
48897;SDS011;34713;50.038;20.000;2024-02-15T05:32:38;42.10;;;19.60;;
48897;SDS011;34713;50.038;20.000;2024-02-15T05:35:09;46.90;;;18.90;;
48897;SDS011;34713;50.038;20.000;2024-02-15T05:37:37;44.10;;;20.50;;
48897;SDS011;34713;50.038;20.000;2024-02-15T05:40:04;54.90;;;20.60;;
48897;SDS011;34713;50.038;20.000;2024-02-15T05:43:18;42.90;;;19.80;;
48897;SDS011;34713;50.038;20.000;2024-02-15T05:47:54;51.20;;;20.20;;
48897;SDS011;34713;50.038;20.000;2024-02-15T05:50:21;36.10;;;19.50;;
48897;SDS011;34713;50.038;20.000;2024-02-15T05:52:48;44.10;;;20.50;;
48897;SDS011;34713;50.038;20.000;2024-02-15T05:55:14;40.90;;;21.00;;
48897;SDS011;34713;50.038;20.000;2024-02-15T05:57:45;40.20;;;22.00;;
48897;SDS011;34713;50.038;20.000;2024-02-15T06:00:12;55.10;;;24.10;;
48897;SDS011;34713;50.038;20.000;2024-02-15T06:02:41;49.90;;;22.30;;
48897;SDS011;34713;50.038;20.000;2024-02-15T06:05:07;48.90;;;23.60;;
48897;SDS011;34713;50.038;20.000;2024-02-15T06:07:36;57.80;;;23.50;;
48897;SDS011;34713;50.038;20.000;2024-02-15T06:10:03;57.10;;;24.60;;
48897;SDS011;34713;50.038;20.000;2024-02-15T06:12:30;58.00;;;25.40;;
48897;SDS011;34713;50.038;20.000;2024-02-15T06:14:58;56.40;;;27.10;;
48897;SDS011;34713;50.038;20.000;2024-02-15T06:17:25;55.90;;;25.40;;
48897;SDS011;34713;50.038;20.000;2024-02-15T06:19:51;55.10;;;27.40;;
48897;SDS011;34713;50.038;20.000;2024-02-15T06:22:18;52.30;;;26.10;;
48897;SDS011;34713;50.038;20.000;2024-02-15T06:24:45;58.10;;;27.10;;
48897;SDS011;34713;50.038;20.000;2024-02-15T06:27:11;55.10;;;26.80;;
48897;SDS011;34713;50.038;20.000;2024-02-15T06:29:39;53.30;;;27.60;;
48897;SDS011;34713;50.038;20.000;2024-02-15T06:35:09;56.50;;;25.40;;
48897;SDS011;34713;50.038;20.000;2024-02-15T06:38:08;54.60;;;27.40;;
48897;SDS011;34713;50.038;20.000;2024-02-15T06:40:54;47.70;;;27.60;;
48897;SDS011;34713;50.038;20.000;2024-02-15T06:43:20;55.40;;;27.70;;
48897;SDS011;34713;50.038;20.000;2024-02-15T06:45:47;49.80;;;27.50;;
48897;SDS011;34713;50.038;20.000;2024-02-15T06:48:17;50.20;;;26.70;;
48897;SDS011;34713;50.038;20.000;2024-02-15T06:50:53;51.40;;;26.40;;
48897;SDS011;34713;50.038;20.000;2024-02-15T06:53:19;57.60;;;27.60;;
48897;SDS011;34713;50.038;20.000;2024-02-15T06:55:46;48.60;;;27.50;;
48897;SDS011;34713;50.038;20.000;2024-02-15T06:58:16;52.90;;;27.50;;
48897;SDS011;34713;50.038;20.000;2024-02-15T07:00:43;61.60;;;27.20;;
48897;SDS011;34713;50.038;20.000;2024-02-15T07:03:10;57.80;;;28.90;;
48897;SDS011;34713;50.038;20.000;2024-02-15T07:05:40;63.60;;;29.50;;
48897;SDS011;34713;50.038;20.000;2024-02-15T07:08:10;52.40;;;29.30;;
48897;SDS011;34713;50.038;20.000;2024-02-15T07:10:37;58.20;;;27.50;;
48897;SDS011;34713;50.038;20.000;2024-02-15T07:13:05;57.40;;;28.80;;
48897;SDS011;34713;50.038;20.000;2024-02-15T07:15:34;59.90;;;29.90;;
48897;SDS011;34713;50.038;20.000;2024-02-15T07:18:07;53.70;;;32.80;;
48897;SDS011;34713;50.038;20.000;2024-02-15T07:20:36;55.80;;;30.30;;
48897;SDS011;34713;50.038;20.000;2024-02-15T07:23:05;55.40;;;29.60;;
48897;SDS011;34713;50.038;20.000;2024-02-15T07:25:32;56.30;;;31.00;;
48897;SDS011;34713;50.038;20.000;2024-02-15T07:27:59;56.80;;;28.70;;
48897;SDS011;34713;50.038;20.000;2024-02-15T07:30:25;54.10;;;29.40;;
48897;SDS011;34713;50.038;20.000;2024-02-15T07:32:52;59.90;;;30.20;;
48897;SDS011;34713;50.038;20.000;2024-02-15T07:35:18;51.90;;;30.50;;
48897;SDS011;34713;50.038;20.000;2024-02-15T07:37:52;59.80;;;30.60;;
48897;SDS011;34713;50.038;20.000;2024-02-15T07:40:21;59.50;;;31.70;;
48897;SDS011;34713;50.038;20.000;2024-02-15T07:42:48;51.20;;;30.90;;
48897;SDS011;34713;50.038;20.000;2024-02-15T07:45:15;58.00;;;31.60;;
48897;SDS011;34713;50.038;20.000;2024-02-15T07:47:44;53.20;;;31.00;;
48897;SDS011;34713;50.038;20.000;2024-02-15T07:50:14;55.20;;;31.00;;
48897;SDS011;34713;50.038;20.000;2024-02-15T07:52:46;59.40;;;30.50;;
48897;SDS011;34713;50.038;20.000;2024-02-15T07:55:13;57.60;;;30.40;;
48897;SDS011;34713;50.038;20.000;2024-02-15T07:57:40;53.00;;;29.10;;
48897;SDS011;34713;50.038;20.000;2024-02-15T08:00:07;49.10;;;27.50;;
48897;SDS011;34713;50.038;20.000;2024-02-15T08:02:37;58.40;;;32.40;;
48897;SDS011;34713;50.038;20.000;2024-02-15T08:05:10;57.40;;;30.90;;
48897;SDS011;34713;50.038;20.000;2024-02-15T08:07:38;62.40;;;30.90;;
48897;SDS011;34713;50.038;20.000;2024-02-15T08:10:08;51.70;;;30.00;;
48897;SDS011;34713;50.038;20.000;2024-02-15T08:12:44;54.00;;;29.50;;
48897;SDS011;34713;50.038;20.000;2024-02-15T08:15:12;50.60;;;25.50;;
48897;SDS011;34713;50.038;20.000;2024-02-15T08:17:39;44.70;;;26.60;;
48897;SDS011;34713;50.038;20.000;2024-02-15T08:20:10;60.80;;;26.60;;
48897;SDS011;34713;50.038;20.000;2024-02-15T08:22:37;52.70;;;28.60;;
48897;SDS011;34713;50.038;20.000;2024-02-15T08:25:08;51.20;;;28.30;;
48897;SDS011;34713;50.038;20.000;2024-02-15T08:27:40;59.10;;;30.70;;
48897;SDS011;34713;50.038;20.000;2024-02-15T08:30:12;57.10;;;32.20;;
48897;SDS011;34713;50.038;20.000;2024-02-15T08:32:40;62.40;;;32.20;;
48897;SDS011;34713;50.038;20.000;2024-02-15T08:35:12;60.60;;;31.70;;
48897;SDS011;34713;50.038;20.000;2024-02-15T08:37:39;59.60;;;32.50;;
48897;SDS011;34713;50.038;20.000;2024-02-15T08:40:08;54.40;;;32.30;;
48897;SDS011;34713;50.038;20.000;2024-02-15T08:42:40;56.70;;;32.60;;
48897;SDS011;34713;50.038;20.000;2024-02-15T08:45:07;58.40;;;34.30;;
48897;SDS011;34713;50.038;20.000;2024-02-15T08:47:41;63.50;;;35.60;;
48897;SDS011;34713;50.038;20.000;2024-02-15T08:50:09;54.80;;;33.10;;
48897;SDS011;34713;50.038;20.000;2024-02-15T08:52:38;61.40;;;32.80;;
48897;SDS011;34713;50.038;20.000;2024-02-15T08:55:08;63.70;;;34.10;;
48897;SDS011;34713;50.038;20.000;2024-02-15T08:57:36;63.60;;;34.30;;
48897;SDS011;34713;50.038;20.000;2024-02-15T09:00:03;67.90;;;34.80;;
48897;SDS011;34713;50.038;20.000;2024-02-15T09:02:39;64.90;;;34.10;;
48897;SDS011;34713;50.038;20.000;2024-02-15T09:05:06;65.50;;;36.10;;
48897;SDS011;34713;50.038;20.000;2024-02-15T09:07:33;73.50;;;35.20;;
48897;SDS011;34713;50.038;20.000;2024-02-15T09:10:00;67.30;;;35.40;;
48897;SDS011;34713;50.038;20.000;2024-02-15T09:12:27;68.30;;;35.40;;
48897;SDS011;34713;50.038;20.000;2024-02-15T09:14:53;66.40;;;35.70;;
48897;SDS011;34713;50.038;20.000;2024-02-15T09:17:20;65.40;;;35.90;;
48897;SDS011;34713;50.038;20.000;2024-02-15T09:19:47;59.70;;;33.20;;
48897;SDS011;34713;50.038;20.000;2024-02-15T09:22:15;60.90;;;32.40;;
48897;SDS011;34713;50.038;20.000;2024-02-15T09:24:42;57.50;;;35.70;;
48897;SDS011;34713;50.038;20.000;2024-02-15T09:27:09;61.70;;;35.90;;
48897;SDS011;34713;50.038;20.000;2024-02-15T09:29:38;56.90;;;35.30;;
48897;SDS011;34713;50.038;20.000;2024-02-15T09:32:08;55.40;;;33.90;;
48897;SDS011;34713;50.038;20.000;2024-02-15T09:34:35;52.10;;;30.20;;
48897;SDS011;34713;50.038;20.000;2024-02-15T09:37:02;50.50;;;28.30;;
48897;SDS011;34713;50.038;20.000;2024-02-15T09:39:29;44.10;;;26.50;;
48897;SDS011;34713;50.038;20.000;2024-02-15T09:41:55;44.40;;;25.40;;
48897;SDS011;34713;50.038;20.000;2024-02-15T09:44:25;46.00;;;25.20;;
48897;SDS011;34713;50.038;20.000;2024-02-15T09:47:04;40.30;;;26.60;;
48897;SDS011;34713;50.038;20.000;2024-02-15T09:49:35;43.80;;;26.80;;
48897;SDS011;34713;50.038;20.000;2024-02-15T09:52:03;46.70;;;26.20;;
48897;SDS011;34713;50.038;20.000;2024-02-15T09:54:30;45.70;;;25.40;;
48897;SDS011;34713;50.038;20.000;2024-02-15T09:57:00;45.90;;;27.00;;
48897;SDS011;34713;50.038;20.000;2024-02-15T09:59:27;46.40;;;25.80;;
48897;SDS011;34713;50.038;20.000;2024-02-15T10:01:54;51.70;;;26.40;;
48897;SDS011;34713;50.038;20.000;2024-02-15T10:04:24;47.70;;;26.00;;
48897;SDS011;34713;50.038;20.000;2024-02-15T10:06:54;45.80;;;26.80;;
48897;SDS011;34713;50.038;20.000;2024-02-15T10:09:27;47.60;;;26.30;;
48897;SDS011;34713;50.038;20.000;2024-02-15T10:11:59;52.50;;;27.50;;
48897;SDS011;34713;50.038;20.000;2024-02-15T10:14:27;47.50;;;26.80;;
48897;SDS011;34713;50.038;20.000;2024-02-15T10:16:55;49.90;;;27.60;;
48897;SDS011;34713;50.038;20.000;2024-02-15T10:19:23;53.80;;;25.40;;
48897;SDS011;34713;50.038;20.000;2024-02-15T10:21:51;47.30;;;27.60;;
48897;SDS011;34713;50.038;20.000;2024-02-15T10:24:22;46.60;;;27.40;;
48897;SDS011;34713;50.038;20.000;2024-02-15T10:26:50;52.70;;;27.50;;
48897;SDS011;34713;50.038;20.000;2024-02-15T10:29:18;51.80;;;27.40;;
48897;SDS011;34713;50.038;20.000;2024-02-15T10:31:52;48.10;;;24.90;;
48897;SDS011;34713;50.038;20.000;2024-02-15T10:34:23;51.70;;;24.00;;
48897;SDS011;34713;50.038;20.000;2024-02-15T10:36:50;45.40;;;22.50;;
48897;SDS011;34713;50.038;20.000;2024-02-15T10:39:17;42.80;;;22.30;;
48897;SDS011;34713;50.038;20.000;2024-02-15T10:41:50;41.70;;;22.10;;
48897;SDS011;34713;50.038;20.000;2024-02-15T10:44:21;42.80;;;21.70;;
48897;SDS011;34713;50.038;20.000;2024-02-15T10:46:51;35.10;;;18.90;;
48897;SDS011;34713;50.038;20.000;2024-02-15T10:49:22;34.60;;;17.30;;
48897;SDS011;34713;50.038;20.000;2024-02-15T10:51:57;28.90;;;17.10;;
48897;SDS011;34713;50.038;20.000;2024-02-15T10:54:29;29.60;;;15.70;;
48897;SDS011;34713;50.038;20.000;2024-02-15T10:57:04;23.10;;;13.90;;
48897;SDS011;34713;50.038;20.000;2024-02-15T10:59:32;26.90;;;15.70;;
48897;SDS011;34713;50.038;20.000;2024-02-15T11:05:08;22.40;;;13.10;;
48897;SDS011;34713;50.038;20.000;2024-02-15T11:07:40;20.70;;;11.40;;
48897;SDS011;34713;50.038;20.000;2024-02-15T11:10:07;18.10;;;9.60;;
48897;SDS011;34713;50.038;20.000;2024-02-15T11:12:37;17.20;;;9.30;;
48897;SDS011;34713;50.038;20.000;2024-02-15T11:15:04;17.60;;;8.90;;
48897;SDS011;34713;50.038;20.000;2024-02-15T11:20:06;19.50;;;8.50;;
48897;SDS011;34713;50.038;20.000;2024-02-15T11:22:36;20.80;;;8.90;;
48897;SDS011;34713;50.038;20.000;2024-02-15T11:25:03;13.30;;;8.30;;
48897;SDS011;34713;50.038;20.000;2024-02-15T11:27:35;19.20;;;8.80;;
48897;SDS011;34713;50.038;20.000;2024-02-15T11:30:05;18.40;;;9.40;;
48897;SDS011;34713;50.038;20.000;2024-02-15T11:32:40;18.60;;;9.70;;
48897;SDS011;34713;50.038;20.000;2024-02-15T11:35:11;17.50;;;9.50;;
48897;SDS011;34713;50.038;20.000;2024-02-15T11:40:18;13.60;;;8.40;;
48897;SDS011;34713;50.038;20.000;2024-02-15T11:42:45;14.20;;;7.90;;
48897;SDS011;34713;50.038;20.000;2024-02-15T11:45:12;31.10;;;9.20;;
48897;SDS011;34713;50.038;20.000;2024-02-15T11:47:39;15.10;;;7.20;;
48897;SDS011;34713;50.038;20.000;2024-02-15T11:50:11;23.90;;;7.70;;
48897;SDS011;34713;50.038;20.000;2024-02-15T11:52:39;17.00;;;7.50;;
48897;SDS011;34713;50.038;20.000;2024-02-15T11:55:07;19.80;;;7.50;;
48897;SDS011;34713;50.038;20.000;2024-02-15T11:57:39;17.70;;;7.90;;
48897;SDS011;34713;50.038;20.000;2024-02-15T12:00:21;15.00;;;7.40;;
48897;SDS011;34713;50.038;20.000;2024-02-15T12:03:07;10.70;;;6.40;;
48897;SDS011;34713;50.038;20.000;2024-02-15T12:05:54;17.20;;;6.10;;
48897;SDS011;34713;50.038;20.000;2024-02-15T12:08:40;18.40;;;6.00;;
48897;SDS011;34713;50.038;20.000;2024-02-15T12:11:29;13.80;;;6.30;;
48897;SDS011;34713;50.038;20.000;2024-02-15T12:14:14;11.50;;;5.30;;
48897;SDS011;34713;50.038;20.000;2024-02-15T12:17:03;14.20;;;4.70;;
48897;SDS011;34713;50.038;20.000;2024-02-15T12:19:49;8.50;;;4.10;;
48897;SDS011;34713;50.038;20.000;2024-02-15T12:22:17;7.60;;;3.60;;
48897;SDS011;34713;50.038;20.000;2024-02-15T12:24:53;8.00;;;3.60;;
48897;SDS011;34713;50.038;20.000;2024-02-15T12:27:23;8.00;;;3.30;;
48897;SDS011;34713;50.038;20.000;2024-02-15T12:29:54;10.40;;;3.80;;
48897;SDS011;34713;50.038;20.000;2024-02-15T12:32:22;5.90;;;3.60;;
48897;SDS011;34713;50.038;20.000;2024-02-15T12:34:50;8.50;;;4.10;;
48897;SDS011;34713;50.038;20.000;2024-02-15T12:37:18;12.10;;;4.40;;
48897;SDS011;34713;50.038;20.000;2024-02-15T12:39:48;7.60;;;4.10;;
48897;SDS011;34713;50.038;20.000;2024-02-15T12:42:18;6.10;;;3.90;;
48897;SDS011;34713;50.038;20.000;2024-02-15T12:44:46;9.50;;;3.30;;
48897;SDS011;34713;50.038;20.000;2024-02-15T12:47:20;5.50;;;3.20;;
48897;SDS011;34713;50.038;20.000;2024-02-15T12:52:33;3.80;;;2.60;;
48897;SDS011;34713;50.038;20.000;2024-02-15T12:55:10;6.60;;;3.50;;
48897;SDS011;34713;50.038;20.000;2024-02-15T12:57:38;4.90;;;2.70;;
48897;SDS011;34713;50.038;20.000;2024-02-15T13:00:11;6.00;;;3.20;;
48897;SDS011;34713;50.038;20.000;2024-02-15T13:02:44;5.40;;;2.60;;
48897;SDS011;34713;50.038;20.000;2024-02-15T13:05:12;6.20;;;3.20;;
48897;SDS011;34713;50.038;20.000;2024-02-15T13:07:40;5.20;;;3.00;;
48897;SDS011;34713;50.038;20.000;2024-02-15T13:10:07;8.40;;;4.00;;
48897;SDS011;34713;50.038;20.000;2024-02-15T13:12:35;8.70;;;3.10;;
48897;SDS011;34713;50.038;20.000;2024-02-15T13:15:02;7.20;;;2.80;;
48897;SDS011;34713;50.038;20.000;2024-02-15T13:17:37;9.90;;;3.10;;
48897;SDS011;34713;50.038;20.000;2024-02-15T13:20:04;5.90;;;3.00;;
48897;SDS011;34713;50.038;20.000;2024-02-15T13:22:37;9.40;;;3.00;;
48897;SDS011;34713;50.038;20.000;2024-02-15T13:25:05;7.70;;;3.10;;
48897;SDS011;34713;50.038;20.000;2024-02-15T13:27:37;8.60;;;3.10;;
48897;SDS011;34713;50.038;20.000;2024-02-15T13:30:05;5.10;;;2.90;;
48897;SDS011;34713;50.038;20.000;2024-02-15T13:32:35;4.70;;;2.90;;
48897;SDS011;34713;50.038;20.000;2024-02-15T13:35:07;5.90;;;3.00;;
48897;SDS011;34713;50.038;20.000;2024-02-15T13:37:50;3.90;;;2.30;;
48897;SDS011;34713;50.038;20.000;2024-02-15T13:40:26;6.90;;;3.20;;
48897;SDS011;34713;50.038;20.000;2024-02-15T13:42:54;10.90;;;4.30;;
48897;SDS011;34713;50.038;20.000;2024-02-15T13:45:27;9.10;;;3.30;;
48897;SDS011;34713;50.038;20.000;2024-02-15T13:47:56;6.20;;;3.20;;
48897;SDS011;34713;50.038;20.000;2024-02-15T13:50:23;7.20;;;3.30;;
48897;SDS011;34713;50.038;20.000;2024-02-15T13:52:50;5.90;;;3.10;;
48897;SDS011;34713;50.038;20.000;2024-02-15T13:55:17;5.30;;;3.40;;
48897;SDS011;34713;50.038;20.000;2024-02-15T13:57:45;8.30;;;3.50;;
48897;SDS011;34713;50.038;20.000;2024-02-15T14:00:15;8.50;;;3.60;;
48897;SDS011;34713;50.038;20.000;2024-02-15T14:02:52;7.80;;;3.20;;
48897;SDS011;34713;50.038;20.000;2024-02-15T14:05:22;7.90;;;2.90;;
48897;SDS011;34713;50.038;20.000;2024-02-15T14:10:25;8.50;;;3.30;;
48897;SDS011;34713;50.038;20.000;2024-02-15T14:12:54;5.60;;;2.90;;
48897;SDS011;34713;50.038;20.000;2024-02-15T14:15:21;5.30;;;3.20;;
48897;SDS011;34713;50.038;20.000;2024-02-15T14:17:48;9.60;;;2.90;;
48897;SDS011;34713;50.038;20.000;2024-02-15T14:20:15;8.50;;;3.40;;
48897;SDS011;34713;50.038;20.000;2024-02-15T14:22:45;8.70;;;3.50;;
48897;SDS011;34713;50.038;20.000;2024-02-15T14:25:15;5.90;;;3.30;;
48897;SDS011;34713;50.038;20.000;2024-02-15T14:27:42;8.40;;;3.00;;
48897;SDS011;34713;50.038;20.000;2024-02-15T14:30:09;6.60;;;3.00;;
48897;SDS011;34713;50.038;20.000;2024-02-15T14:32:55;6.60;;;3.20;;
48897;SDS011;34713;50.038;20.000;2024-02-15T14:35:32;5.40;;;3.00;;
48897;SDS011;34713;50.038;20.000;2024-02-15T14:38:03;7.60;;;3.30;;
48897;SDS011;34713;50.038;20.000;2024-02-15T14:40:35;5.90;;;3.40;;
48897;SDS011;34713;50.038;20.000;2024-02-15T14:43:02;4.90;;;3.30;;
48897;SDS011;34713;50.038;20.000;2024-02-15T14:45:31;7.50;;;3.10;;
48897;SDS011;34713;50.038;20.000;2024-02-15T14:47:59;8.40;;;3.30;;
48897;SDS011;34713;50.038;20.000;2024-02-15T14:50:26;7.30;;;3.60;;
48897;SDS011;34713;50.038;20.000;2024-02-15T14:52:52;6.20;;;3.60;;
48897;SDS011;34713;50.038;20.000;2024-02-15T14:55:19;8.20;;;4.30;;